Vliegveldwaarnemingen Nederland - (AUTO) METAR

Luchtvaartmeteorologische informatie voor operationeel gebruik en vluchtvoorbereiding is beschikbaar op www.luchtvaartmeteo.nl.

ZCZC
SA241625 EHKD     DE KOOY/DE KOOY   NLD   1 m.
METAR EHKD 241625Z AUTO 32008KT 260V020 9999 BKN015 14/09 Q1016
WHT 30010KT 9999 FEW016=

ZCZC
SA241625 EHFD     F3-FB-1   NLD   50 m.
METAR EHFD 241625Z AUTO 29022KT 9999 FEW009/// SCT011/// BKN014///
11/08 Q1014 W///H///=

ZCZC
SA241625 EHAM     AMSTERDAM/SCHIPHOL   NLD   -3 m.
METAR EHAM 241625Z 31012KT 280V340 CAVOK 16/05 Q1015 NOSIG=

ZCZC
SA241625 EHVL     VLIELAND   NLD   10 m.
METAR EHVL 241625Z AUTO 32011KT 9999 FEW010 SCT014 OVC016 13/10 Q1016
 GRN=

ZCZC
SA241625 EHJR     K13-A   NLD   37 m.
METAR EHJR 241625Z AUTO 31008KT //// // ///////// 11/09 Q1016 RE//
W12/H10=

ZCZC
SA241625 EHLW     LEEUWARDEN/LEEUWARDEN   NLD   1 m.
METAR EHLW 241625Z AUTO 33010KT 270V010 9999 BKN022 OVC026 13/09
Q1015 WHT=

ZCZC
SA241625 EHDL     ARNHEM/DEELEN   NLD   48 m.
METAR EHDL 241625Z AUTO 31011KT 240V040 9999 BKN300 20/04 Q1014 BLU=

ZCZC
SA241625 EHGG     GRONINGEN/EELDE   NLD   5 m.
METAR EHGG 241625Z AUTO 33014KT 300V360 9999 NCD 15/09 Q1014 NOSIG=

ZCZC
SA241625 EHSC     LICHTEILAND GOEREE   NLD   22 m.
METAR EHSC 241625Z AUTO 34007KT 9999 ///////// 12/08 Q1016 W13/H6=

ZCZC
SA241625 EHSA     EURO PLATFORM   NLD   19 m.
METAR EHSA 241625Z AUTO 33004KT 9999 ///////// 12/08 Q1017 W10/H7=

ZCZC
SA241625 EHWO     WOENSDRECHT/WOENSDRECHT   NLD   19 m.
METAR EHWO 241625Z AUTO 34009KT 240V020 9999 BKN170 19/07 Q1015 BLU=

ZCZC
SA241625 EHRD     ROTTERDAM/THE HAGUE AIRPORT   NLD   -5 m.
METAR EHRD 241625Z AUTO 31009KT 270V360 9999 NCD 17/07 Q1016 NOSIG=

ZCZC
SA241625 EHGR     GILZE-RIJEN/GILZE-RIJEN   NLD   14 m.
METAR EHGR 241625Z AUTO 30014KT 280V010 9999 NCD 19/02 Q1015 BLU=

ZCZC
SA241625 EHVK     VOLKEL/VOLKEL   NLD   21 m.
METAR EHVK 241625Z AUTO 30010KT 270V350 9999 OVC270 20/06 Q1014 BLU=

ZCZC
SA241625 EHBK     MAASTRICHT/MAASTRICHT-AACHEN   NLD   114 m.
METAR EHBK 241625Z AUTO 30007KT 240V020 9999 NSC 22/06 Q1014 NOSIG=

ZCZC
SA241625 EHFZ     F16-A   NLD   43 m.
METAR EHFZ 241625Z AUTO 30017KT 9999 FEW011 SCT019 12/08 Q1015
W///H///=

ZCZC
SA241625 EHKV     K14-FA-1C   NLD   41 m.
METAR EHKV 241625Z AUTO VRB07KT 9999 FEW008 11/09 Q//// W///H///=

ZCZC
SA241625 EHMG     L9-FF-1   NLD   44 m.
METAR EHMG 241625Z AUTO 31012KT 9999 FEW012 SCT019 BKN023 11/09 Q1016
W///H///=

ZCZC
SA241625 EHMA     AWG-1   NLD   40 m.
METAR EHMA 241625Z AUTO 30016KT 9999 -RA FEW012 SCT017 BKN022 12/09
Q1015 W///H///=

ZCZC
SA241625 EHDV     D15-FA-1   NLD   42 m.
METAR EHDV 241625Z AUTO 31013KT 9999 SCT015/// BKN018/// OVC022///
11/08 Q1016 W///H///=

ZCZC
SA241625 EHAK     A12-CPP   NLD   48 m.
METAR EHAK 241625Z AUTO 26021KT 9999 FEW008/// SCT012/// BKN019///
10/08 Q1014 W///H///=

ZCZC
SA241625 EHQE     HOORN-A   NLD   50 m.
METAR EHQE 241625Z AUTO 32010KT //// // ////// 11/09 Q1016 RE//
W///H///=

ZCZC
SA241625 EHJA     J6-A   NLD   45 m.
METAR EHJA 241625Z AUTO 31010KT 9999 ///////// 11/09 Q1016 W///H///=

ZCZC
SA241625 EHPG     P11-B   NLD   41 m.
METAR EHPG 241625Z AUTO 31004KT 270V340 9999 NSC 13/09 Q1016
W///H///=

ZCZC
SA241625 EHHW     BUITENGAATS/BG-OHVS2      42 m.
METAR EHHW 241625Z AUTO 31013KT 9999 FEW010/// BKN020/// 11/09 Q1014
W///H///=

ZCZC
SA241625 EHFS     VLISSINGEN AWS   NLD   8 m.
METAR EHFS 241625Z AUTO 33008KT 300V030 9999 NCD 17/09 Q1016
W///H///=

ZCZC
SA241625 EHEH CCB EINDHOVEN/EINDHOVEN   NLD   22 m.
METAR COR EHEH 241625Z AUTO 31012KT 230V020 9999 OVC260 21/06 Q1014
BLU 31012KT CAVOK=

24/05/2019 18.45 uur LT